Nearby METAR Reports

 

MWCR - Owen Roberts, Grand Cayman
Distance from station: NNE 3mi, 4km
Updated: 27/03/2017 21:00
NOT Current
Few Clouds
Few Clouds
 Wind from ENE
Wind: ENE 7 mph , 11 km/h
Temperature: 77°F , 25°C
Dew Point: 72°F , 22°C
Humidity: 83%
Barometer: 1013 hPa
Clouds: Few Clouds
Visibility: 6 miles , 10 km
Cloud details: Few Clouds 2200 ft
2017/03/28 02:00 MWCR 280200Z 07006KT 9999 FEW022 25/22 Q1013 NOSIG
MWCB - Gerrard Smith, Cayman Brac
Distance from station: ENE 102mi, 164km
Updated: 27/03/2017 19:00
NOT Current
Few Clouds
Few Clouds
 Wind from ENE
Wind: ENE 2 mph , 4 km/h
Temperature: 77°F , 25°C
Dew Point: 70°F , 21°C
Humidity: 79%
Barometer: 1013 hPa
Clouds: Few Clouds
Visibility: 6 miles , 10 km
Cloud details: Few Clouds 1800 ft
2017/03/28 00:00 MWCB 280000Z 06002KT 9999 FEW018 25/21 Q1013
 
MUCL - Cayo Largo D Sur, Cuba
Distance from station: N 164mi, 264km
Updated: 27/03/2017 23:05

 Wind from NNW
Wind: NNW 6 mph , 9 km/h
Temperature: 75°F , 24°C
Dew Point: 63°F , 17°C
Humidity: 65%
Barometer: 1015 hPa
2017/03/28 04:05 MUCL 280405Z AUTO 34005KT 24/17 Q1015
MUCF - Cienfuegos(Civ/M, Cuba
Distance from station: NNE 208mi, 335km
Updated: 27/03/2017 22:58

 Wind from ENE
Wind: ENE 9 mph , 15 km/h
Temperature: 72°F , 22°C
Dew Point: 66°F , 19°C
Humidity: 83%
Barometer: 1016 hPa
2017/03/28 03:58 MUCF 280358Z AUTO 07008KT 22/19 Q1016
 
MKJS - Sangster/Montego Bay, Jamaica
Distance from station: ESE 233mi, 375km
Updated: 27/03/2017 23:00
Few Clouds
Few Clouds
 Wind from varies
Wind: varies 1 mph , 2 km/h
Temperature: 73°F , 23°C
Dew Point: 68°F , 20°C
Humidity: 83%
Barometer: 1013 hPa
Clouds: Few Clouds
Visibility: 6 miles , 10 km
Cloud details: Few Clouds 2200 ft
2017/03/28 04:00 MKJS 280400Z VRB01KT 9999 FEW022 23/20 Q1013
MUSC - Santa Clara, Cuba
Distance from station: NNE 242mi, 389km
Updated: 27/03/2017 22:50
Few Clouds
Few Clouds
 Wind from E
Wind: E 5 mph , 7 km/h
Temperature: 68°F , 20°C
Dew Point: 63°F , 17°C
Humidity: 83%
Barometer: 1017 hPa
Clouds: Few Clouds
Visibility: 6 miles , 9 km
Cloud details: Few Clouds 2000 ft
2017/03/28 03:50 MUSC 280350Z 09004KT 9000 FEW020 20/17 Q1017
 
MUVR - Varadero, Cuba
Distance from station: N 260mi, 419km
Updated: 27/03/2017 22:50
Few Clouds
Few Clouds
 Wind from SE
Wind: SE 5 mph , 7 km/h
Temperature: 64°F , 18°C
Dew Point: 61°F , 16°C
Humidity: 88%
Barometer: 1016 hPa
Clouds: Few Clouds
Visibility: 6 miles , 9 km
Cloud details: Few Clouds 3000 ft
2017/03/28 03:50 MUVR 280350Z 13004KT 340V150 9000 FEW030 18/16 Q1016
MUHA - Havana/Jose Mar, Cuba
Distance from station: NNW 264mi, 425km
Updated: 27/03/2017 22:55
Few Clouds
Few Clouds
 Wind from E
Wind: E 6 mph , 9 km/h
Temperature: 68°F , 20°C
Dew Point: 63°F , 17°C
Humidity: 83%
Barometer: 1016 hPa
Clouds: Few Clouds
Visibility: 6 miles , 9 km
Cloud details: Few Clouds 3000 ft
2017/03/28 03:55 MUHA 280355Z 09005KT 9000 FEW030 20/17 Q1016
 
MUCM - Camaguey/Iganci, Cuba
Distance from station: NE 273mi, 439km
Updated: 27/03/2017 22:50
Partly cloudy
Partly cloudy
 Wind from ENE
Wind: ENE 9 mph , 15 km/h
Temperature: 68°F , 20°C
Dew Point: 64°F , 18°C
Humidity: 88%
Barometer: 1016 hPa
Clouds: Partly cloudy
Visibility: 6 miles , 9 km
2017/03/28 03:50 MUCM 280350Z 06008KT 9000 NSC 20/18 Q1016
MUMZ - Manzanillo, Cuba
Distance from station: ENE 287mi, 462km
Updated: 11/10/2016 09:50
NOT Current
Partly cloudy
Partly cloudy
 Wind from ENE
Wind: ENE 12 mph , 19 km/h
Temperature: 84°F , 29°C
Heat Index: 89°F , 32°C
Dew Point: 72°F , 22°C
Humidity: 66%
Barometer: 1014 hPa
Clouds: Partly cloudy
Visibility: 6 miles , 9 km
Cloud details: Partly cloudy 2000 ft
2016/10/11 14:50 MUMZ 111450Z 07010KT 9000 SCT020 29/22 Q1014
 
MUCC - Canagua, Cuba
Distance from station: NE 296mi, 476km
Updated: 27/03/2017 22:50
Few Clouds
Few Clouds
 Wind from ENE
Wind: ENE 16 mph , 26 km/h
Temperature: 73°F , 23°C
Dew Point: 64°F , 18°C
Humidity: 74%
Barometer: 1015 hPa
Clouds: Few Clouds
Visibility: 6 miles , 9 km
Cloud details: Few Clouds 2000 ft
2017/03/28 03:50 MUCC 280350Z 06014KT 9000 FEW020 23/18 Q1015
MKJP - Kingston/Norman Manley, Jamaica
Distance from station: ESE 315mi, 507km
Updated: 27/03/2017 23:00
Few Clouds
Few Clouds
 Wind from NNW
Wind: NNW 10 mph , 17 km/h
Temperature: 77°F , 25°C
Dew Point: 72°F , 22°C
Humidity: 83%
Barometer: 1013 hPa
Clouds: Few Clouds
Visibility: 6 miles , 10 km
Cloud details: Few Clouds 2200 ft
2017/03/28 04:00 MKJP 280400Z 34009KT 9999 FEW022 25/22 Q1013
 
MHPL - Puerto Lempira, Honduras
Distance from station: SSW 318mi, 513km
Updated: 27/03/2017 19:00
NOT Current

 
Visibility: 1 mile
2017/03/28 00:00 MHPL 280000Z 0608KT 9999 SCT025TCU 27/21 Q1011 TCU SW W HZ
MUHG - Holguin (civ/Mil, Cuba
Distance from station: ENE 345mi, 555km
Updated: 27/03/2017 22:50
Clear
Clear
 Wind from E
Wind: E 2 mph , 4 km/h
Temperature: 68°F , 20°C
Dew Point: 64°F , 18°C
Humidity: 88%
Barometer: 1015 hPa
Summary: Clear
Visibility: greater than 7 miles , 10 km
2017/03/28 03:50 MUHG 280350Z 09002KT CAVOK 20/18 Q1015